Disclaimer

Please do not use the information listed here in-flight or in-navigation, as they are not provided to us by the airports but are provided by volunteers, so they might be outdated.

Search


Regions


Airport information page

Radio informations:
QUIMPER TWR - 118.625 MHz

Airport informations:
Latitude: 47° 58' 29.93" N
Longitude: 004° 10' 04.03" W
Elevation: 297 feet - 91 meters
Operating hours: Remarks
Operating agency: Civil government, landing fees and diplomatic clearance may be required
Timezone: UTC+1(+2DT) - Last Sunday in March to last Sunday in October
Fuel: Jet A1, without icing nhibitor.

100/130 MIL Spec, low lead, aviation gasoline (BLUE)

Runway information:
04/22 - 2657 x 148 feet< - >810 x 45 meters
10/28 - 7054 x 148 feet< - >2150 x 45 meters

Recent METARs:
LFRQ 182000Z AUTO 07010KT CAVOK 05/01 Q1016 NOSIG
LFRQ 182030Z AUTO 07009KT CAVOK 05/01 Q1016 NOSIG
LFRQ 182100Z AUTO 09007KT CAVOK 05/01 Q1016 NOSIG

Airport on the map: